Picton, Canada
Current Conditions -  °F | °C
As of 4:00 AM on Saturday 25 Oct 2014 (Local Time) from CYTR Reporting Station
Broken Clouds Broken Clouds  
Wind Chill: 10°   Ceiling: 5200
Heat Index: 10°   Visibility: 15mi
Dew Point:   Wind: 0mph
Humidity: 76%   Direction: NA
Pressure: 29.83"   Gusts: NA
Location:  44.01°N, 77.14°W
Report Text: CYTR 250800Z 00000KT 15SM BKN052 10/06 A2983 RMK SC6 SLP105
Loading
Personal Weather Stations






























Interactive Weather Map
Tropical Storm Tracking
New forecast layout! Learn more

10-Day Weather Forecast

Advertisements
Track Severe Weather on mobile